createdAt,value
2023-01-17T00:01:48.495Z,95982.80
2023-01-17T00:12:16.868Z,95972.39
2023-01-17T00:23:02.541Z,95974.66
2023-01-17T00:33:29.210Z,95960.64
2023-01-17T00:44:14.442Z,95948.82
2023-01-17T00:54:59.635Z,95954.23
2023-01-17T01:05:45.007Z,95979.16
2023-01-17T01:16:30.772Z,95976.95
2023-01-17T01:27:15.480Z,95981.75
2023-01-17T01:37:42.962Z,95990.87
2023-01-17T01:48:23.158Z,95989.42
2023-01-17T01:58:54.431Z,95987.63
2023-01-17T02:09:22.895Z,95993.19
2023-01-17T02:20:22.804Z,95995.86
2023-01-17T02:30:53.302Z,95992.22
2023-01-17T02:41:23.794Z,95993.36
2023-01-17T02:52:23.998Z,95993.92
2023-01-17T03:03:03.140Z,95988.17
2023-01-17T03:13:31.191Z,95991.27
2023-01-17T03:23:58.679Z,96002.21
2023-01-17T03:34:26.549Z,96008.94
2023-01-17T03:44:54.027Z,96008.80
2023-01-17T03:55:21.995Z,96009.20
2023-01-17T04:05:49.590Z,96005.71
2023-01-17T04:16:19.490Z,96004.36
2023-01-17T04:26:47.229Z,95994.91
2023-01-17T04:37:14.735Z,96001.94
2023-01-17T04:47:42.636Z,96013.89
2023-01-17T04:58:10.273Z,96023.06
2023-01-17T05:08:37.810Z,96037.52
2023-01-17T05:19:05.375Z,96039.04
2023-01-17T05:29:33.133Z,96034.59
2023-01-17T05:40:00.666Z,96037.19
2023-01-17T05:50:31.329Z,96049.77
2023-01-17T06:00:59.134Z,96052.65
2023-01-17T06:11:26.972Z,96060.59
2023-01-17T06:21:54.506Z,96073.45
2023-01-17T06:32:22.126Z,96076.17
2023-01-17T06:42:49.688Z,96082.20
2023-01-17T06:53:17.325Z,96087.05
2023-01-17T07:03:45.129Z,96092.87
2023-01-17T07:14:16.757Z,96094.55
2023-01-17T07:24:44.474Z,96097.16
2023-01-17T07:35:13.920Z,96105.45
2023-01-17T07:45:44.164Z,96115.16
2023-01-17T07:56:11.798Z,96120.73
2023-01-17T08:06:43.202Z,96131.50
2023-01-17T08:17:14.793Z,96141.55
2023-01-17T08:27:43.060Z,96151.60
2023-01-17T08:38:11.513Z,96157.31
2023-01-17T08:48:38.991Z,96164.13
2023-01-17T08:59:06.604Z,96162.50
2023-01-17T09:09:34.096Z,96161.70
2023-01-17T09:20:01.601Z,96172.88
2023-01-17T09:30:29.248Z,96182.87
2023-01-17T09:40:56.798Z,96182.44
2023-01-17T09:51:25.644Z,96191.86
2023-01-17T10:02:03.909Z,96192.88
2023-01-17T10:12:41.008Z,96189.80
2023-01-17T10:23:33.445Z,96190.02
2023-01-17T10:34:07.031Z,96191.23
2023-01-17T10:44:40.956Z,96194.83
2023-01-17T10:55:25.265Z,96200.71
2023-01-17T11:06:19.162Z,96209.57
2023-01-17T11:16:47.855Z,96215.28
2023-01-17T11:27:25.378Z,96207.55
2023-01-17T11:38:01.825Z,96202.27
2023-01-17T11:48:33.713Z,96193.92
2023-01-17T11:59:25.465Z,96181.71
2023-01-17T12:10:05.425Z,96177.61
2023-01-17T12:20:42.661Z,96163.13
2023-01-17T12:31:20.351Z,96157.26
2023-01-17T12:42:00.618Z,96170.16
2023-01-17T12:52:40.288Z,96177.98
2023-01-17T13:03:17.656Z,96179.77
2023-01-17T13:13:45.976Z,96164.87
2023-01-17T13:24:23.982Z,96165.13
2023-01-17T13:35:13.873Z,96166.31
2023-01-17T13:45:42.622Z,96188.52
2023-01-17T13:56:16.465Z,96195.17
2023-01-17T14:06:46.763Z,96219.95
2023-01-17T14:17:37.939Z,96231.60
2023-01-17T14:28:09.154Z,96262.74
2023-01-17T14:38:42.598Z,96281.23
2023-01-17T14:49:25.474Z,96289.96
2023-01-17T14:59:52.993Z,96302.00
2023-01-17T15:10:24.114Z,96319.52
2023-01-17T15:20:58.131Z,96325.80
2023-01-17T15:31:38.446Z,96309.20
2023-01-17T15:42:08.761Z,96306.21
2023-01-17T15:52:49.304Z,96290.22
2023-01-17T16:03:26.189Z,96276.55
2023-01-17T16:13:53.809Z,96272.58
2023-01-17T16:24:21.367Z,96269.65
2023-01-17T16:34:49.076Z,96266.65
2023-01-17T16:45:17.988Z,96255.20
2023-01-17T16:55:46.096Z,96245.80
2023-01-17T17:06:15.132Z,96232.96
2023-01-17T17:16:43.686Z,96229.30
2023-01-17T17:27:09.801Z,96229.10
2023-01-17T17:37:37.555Z,96223.26
2023-01-17T17:48:05.506Z,96217.34
2023-01-17T17:58:33.995Z,96242.45
2023-01-17T18:09:01.597Z,96262.46
2023-01-17T18:19:29.516Z,96259.71
2023-01-17T18:29:57.034Z,96258.90
2023-01-17T18:40:24.755Z,96260.69
2023-01-17T18:50:59.753Z,96262.36
2023-01-17T19:01:29.282Z,96258.98
2023-01-17T19:11:57.610Z,96257.83
2023-01-17T19:22:25.416Z,96243.98
2023-01-17T19:32:53.693Z,96230.61
2023-01-17T19:43:21.408Z,96214.30
2023-01-17T19:53:49.180Z,96211.20
2023-01-17T20:04:18.190Z,96212.09
2023-01-17T20:14:45.883Z,96208.02
2023-01-17T20:25:14.662Z,96204.03
2023-01-17T20:35:40.969Z,96188.20
2023-01-17T20:46:09.182Z,96175.17
2023-01-17T20:56:37.977Z,96173.42
2023-01-17T21:07:05.628Z,96168.34
2023-01-17T21:17:34.881Z,96166.33
2023-01-17T21:28:02.543Z,96153.52
2023-01-17T21:38:31.439Z,96164.50
2023-01-17T21:48:59.232Z,96171.66
2023-01-17T21:59:26.786Z,96177.37
2023-01-17T22:09:54.717Z,96166.52
2023-01-17T22:20:22.595Z,96158.64
2023-01-17T22:30:50.375Z,96136.79
2023-01-17T22:41:20.285Z,96118.84
2023-01-17T22:51:47.914Z,96104.05
2023-01-17T23:02:16.674Z,96101.40
2023-01-17T23:12:44.312Z,96092.11
2023-01-17T23:23:11.856Z,96077.54
2023-01-17T23:33:39.414Z,96055.81
2023-01-17T23:44:07.053Z,96042.77
2023-01-17T23:54:35.170Z,96022.88
